Share

Del Bajio, Mexico

7:03 AM CDT on April 23, 2014 (GMT -0500)
De Guanajuato International (MMLO) Elev 5968 ft | 20.99 °N, 101.48 °W | Change Station

Current weather conditions updated 14 minutes ago

Partly Cloudy
Partly Cloudy
57 °F
Feels Like 57 °F
N
0
Wind Variable Wind from North
Sunrise 7:20 AM
Sunset 8:07 PM
Moon Last Quarter

Today is forecast to be nearly the same temperature as yesterday.

Pressure 29.74 in
Visibility 8.0 miles
Clouds Few 3000 ft
Dew Point 50 °F
Humidity 77%
Rainfall 0.00 in
Snow Depth Not available.
UV 0 out of 16
Pollen Not available.
Air Quality Not available.
Flu Activity Not available.
METAR MMLO 231149Z 00000KT 8SM FEW030 14/10 A3021 RMK SLP070 52006 957 8/500

More Conditions Fewer Conditions

Pressure 29.74 in
Visibility 8.0 miles
Clouds Few 3000 ft
Dew Point 50 °F
Humidity 77%
Rainfall 0.00 in
Snow Depth Not available.
UV 0 out of 16
Pollen Not available.
Air Quality Not available.
Flu Activity Not available.
METAR MMLO 231149Z 00000KT 8SM FEW030 14/10 A3021 RMK SLP070 52006 957 8/500

More Conditions Fewer Conditions

10-Day Weather Forecast

Almanac

Astronomy

Apr. 23, 2014 Rise Set
Actual Time 7:20 AM CDT 8:07 PM CDT
Civil Twilight 6:57 AM CDT 8:30 PM CDT
Nautical Twilight 6:31 AM CDT 8:57 PM CDT
Astronomical Twilight 6:03 AM CDT 9:25 PM CDT
Moon 3:08 AM CDT 3:01 PM CDT
Length of Visible Light 13h 32m
Length of Day
12h 46m
Tomorrow will be 1m 5s longer.
Last Quarter, 37% of the Moon is Illuminated
Today
Last Quarter
Apr 29
New
May 6
First Quarter
May 14
Full
May 21
Last Quarter

Yesterday's Extremes

Country Highs Country Lows

Community

  • April Sunset
    April Sunset
  • Waiting..
    Waiting..
  • Sunset...
    Sunset...
  • Happy outdoor day
    Happy outdoor day
  • mystic afternoon....
    mystic afternoon....

WunderPhotos

Upload Photos

1,704,250 photos uploaded!

Nearby

Snow Depth

Not available.

Coastal Water Temperatures

Place Temperature
No Stations Reporting

Earthquake Activity

City Distance Mag. Time & Date
No recent earthquake activity has been reported nearby.
Minimum magnitude displayed is 2.5.

Nearby Weather Stations

Station Location Temp. Dew Point Humidity Wind Precip. Elev Updated Type
CEPC-01-GTO, Guanajuato 58.2 °F 49 °F 71% NNW  at  0.0 mph 0.00 in / hr 6489 ft 6:46 AM CDT Normal
El Molino, Leon 54.7 °F 47 °F 75% NNW  at  0.0 mph 0.00 in / hr 5955 ft 7:01 AM CDT Normal
Cumbres del Campestre-Leon Norte, Leon 59.8 °F 52 °F 74% SSE  at  3.0 mph 0.00 in / hr 6545 ft 7:03 AM CDT Rapid Fire

Show More Stations Show Fewer Stations

What do you think?

We're not finished. Please let us know what you like, what you don't like, and what you are still missing.